createdAt,value
2022-12-23T00:00:13.179Z,99717.13
2022-12-23T00:01:16.764Z,99718.08
2022-12-23T00:02:18.841Z,99717.63
2022-12-23T00:03:21.589Z,99720.23
2022-12-23T00:04:23.797Z,99719.38
2022-12-23T00:05:25.784Z,99721.92
2022-12-23T00:06:28.028Z,99724.40
2022-12-23T00:07:30.122Z,99721.80
2022-12-23T00:08:34.036Z,99720.13
2022-12-23T00:09:36.822Z,99715.67
2022-12-23T00:10:40.579Z,99713.81
2022-12-23T00:11:42.526Z,99710.35
2022-12-23T00:12:44.505Z,99704.30
2022-12-23T00:13:46.516Z,99702.56
2022-12-23T00:14:48.464Z,99712.02
2022-12-23T00:15:50.733Z,99695.39
2022-12-23T00:16:53.099Z,99697.15
2022-12-23T00:17:55.513Z,99691.13
2022-12-23T00:18:57.642Z,99693.80
2022-12-23T00:20:00.211Z,99693.80
2022-12-23T00:21:08.909Z,99691.09
2022-12-23T00:22:09.859Z,99695.63
2022-12-23T00:23:12.502Z,99687.67
2022-12-23T00:24:14.433Z,99691.13
2022-12-23T00:25:16.774Z,99694.78
2022-12-23T00:26:23.083Z,99695.63
2022-12-23T00:27:25.442Z,99692.14
2022-12-23T00:28:28.745Z,99688.59
2022-12-23T00:29:30.833Z,99686.75
2022-12-23T00:30:33.104Z,99684.22
2022-12-23T00:31:35.026Z,99672.81
2022-12-23T00:32:36.991Z,99673.76
2022-12-23T00:33:41.383Z,99670.41
2022-12-23T00:34:43.326Z,99671.19
2022-12-23T00:35:45.898Z,99672.87
2022-12-23T00:36:48.122Z,99669.42
2022-12-23T00:37:50.826Z,99665.02
2022-12-23T00:38:53.397Z,99665.91
2022-12-23T00:39:56.307Z,99665.13
2022-12-23T00:40:59.253Z,99668.69
2022-12-23T00:42:01.226Z,99666.05
2022-12-23T00:43:03.105Z,99675.48
2022-12-23T00:44:05.192Z,99669.39
2022-12-23T00:45:09.677Z,99670.27
2022-12-23T00:46:11.790Z,99671.26
2022-12-23T00:47:13.878Z,99675.48
2022-12-23T00:48:15.978Z,99669.67
2022-12-23T00:49:19.251Z,99666.19
2022-12-23T00:50:21.262Z,99669.50
2022-12-23T00:51:23.140Z,99666.68
2022-12-23T00:52:25.279Z,99665.09
2022-12-23T00:53:27.378Z,99669.42
2022-12-23T00:54:29.451Z,99665.91
2022-12-23T00:55:32.117Z,99668.65
2022-12-23T00:56:34.224Z,99666.19
2022-12-23T00:57:37.023Z,99671.60
2022-12-23T00:58:38.889Z,99666.96
2022-12-23T00:59:40.782Z,99666.25
2022-12-23T01:00:44.567Z,99665.37
2022-12-23T01:01:46.770Z,99661.75
2022-12-23T01:02:48.848Z,99659.03
2022-12-23T01:03:50.876Z,99662.59
2022-12-23T01:04:52.749Z,99658.36
2022-12-23T01:05:59.691Z,99655.08
2022-12-23T01:07:02.835Z,99655.96
2022-12-23T01:08:10.659Z,99657.69
2022-12-23T01:09:12.990Z,99655.89
2022-12-23T01:10:15.745Z,99659.45
2022-12-23T01:11:17.733Z,99665.34
2022-12-23T01:12:19.780Z,99655.62
2022-12-23T01:13:21.751Z,99659.17
2022-12-23T01:14:24.042Z,99657.76
2022-12-23T01:15:26.480Z,99652.41
2022-12-23T01:16:28.483Z,99653.12
2022-12-23T01:17:30.459Z,99655.96
2022-12-23T01:18:35.257Z,99651.77
2022-12-23T01:19:38.012Z,99655.05
2022-12-23T01:20:40.527Z,99659.38
2022-12-23T01:21:42.408Z,99652.34
2022-12-23T01:22:44.573Z,99659.38
2022-12-23T01:23:46.687Z,99652.55
2022-12-23T01:24:48.678Z,99656.84
2022-12-23T01:27:09.044Z,99654.67
2022-12-23T01:28:11.795Z,99665.61
2022-12-23T01:29:13.684Z,99658.64
2022-12-23T01:30:15.932Z,99656.91
2022-12-23T01:31:17.955Z,99668.96
2022-12-23T01:32:20.219Z,99660.30
2022-12-23T01:33:22.520Z,99663.07
2022-12-23T01:34:31.064Z,99663.04
2022-12-23T01:35:30.180Z,99656.78
2022-12-23T01:36:33.102Z,99657.66
2022-12-23T01:37:35.005Z,99657.86
2022-12-23T01:38:37.110Z,99660.50
2022-12-23T01:39:39.173Z,99662.02
2022-12-23T01:40:43.829Z,99655.08
2022-12-23T01:41:46.650Z,99655.19
2022-12-23T01:42:49.449Z,99652.44
2022-12-23T01:43:51.665Z,99647.47
2022-12-23T01:45:20.127Z,99651.73
2022-12-23T01:46:22.266Z,99651.56
2022-12-23T01:47:28.117Z,99639.62
2022-12-23T01:48:31.234Z,99650.95
2022-12-23T01:49:33.822Z,99646.76
2022-12-23T01:50:45.967Z,99650.08
2022-12-23T01:51:48.438Z,99652.61
2022-12-23T01:53:15.298Z,99649.20
2022-12-23T01:54:17.595Z,99643.14
2022-12-23T01:55:23.301Z,99645.06
2022-12-23T01:56:29.256Z,99647.61
2022-12-23T01:57:31.895Z,99645.81
2022-12-23T01:58:43.484Z,99642.46
2022-12-23T01:59:45.915Z,99633.83
2022-12-23T02:00:48.229Z,99637.12
2022-12-23T02:01:50.217Z,99637.12
2022-12-23T02:02:53.096Z,99638.00
2022-12-23T02:04:02.136Z,99634.34
2022-12-23T02:05:04.717Z,99633.36
2022-12-23T02:06:09.461Z,99637.02
2022-12-23T02:07:12.656Z,99641.52
2022-12-23T02:08:16.097Z,99635.56
2022-12-23T02:09:29.624Z,99639.72
2022-12-23T02:10:39.055Z,99635.39
2022-12-23T02:11:59.328Z,99642.26
2022-12-23T02:13:17.387Z,99645.71
2022-12-23T02:14:28.542Z,99632.11
2022-12-23T02:15:40.344Z,99638.73
2022-12-23T02:16:46.158Z,99640.53
2022-12-23T02:17:58.018Z,99639.83
2022-12-23T02:19:07.049Z,99639.92
2022-12-23T02:20:27.959Z,99636.41
2022-12-23T02:21:52.119Z,99639.69
2022-12-23T02:23:06.691Z,99645.91
2022-12-23T02:24:32.503Z,99643.03
2022-12-23T02:26:12.225Z,99645.64
2022-12-23T02:27:27.207Z,99639.66
2022-12-23T02:29:04.757Z,99640.60
2022-12-23T02:30:26.335Z,99643.81
2022-12-23T02:31:38.263Z,99637.05
2022-12-23T02:33:07.067Z,99640.39
2022-12-23T02:34:41.691Z,99642.97
2022-12-23T02:36:05.372Z,99632.65
2022-12-23T02:37:44.866Z,99633.70
2022-12-23T02:39:11.028Z,99636.91
2022-12-23T02:40:33.556Z,99635.56
2022-12-23T02:41:54.705Z,99627.54
2022-12-23T02:43:03.493Z,99633.49
2022-12-23T02:44:15.418Z,99632.75
2022-12-23T02:45:30.426Z,99625.20
2022-12-23T02:46:39.411Z,99626.83
2022-12-23T02:47:48.185Z,99631.91
2022-12-23T02:49:03.267Z,99629.30
2022-12-23T02:50:18.077Z,99636.98
2022-12-23T02:51:22.032Z,99630.34
2022-12-23T02:52:27.735Z,99626.80
2022-12-23T02:53:39.260Z,99626.16
2022-12-23T02:54:52.039Z,99620.67
2022-12-23T02:55:55.699Z,99631.33
2022-12-23T02:57:01.178Z,99632.92
2022-12-23T02:58:06.857Z,99629.33
2022-12-23T02:59:18.708Z,99627.54
2022-12-23T03:00:21.489Z,99622.23
2022-12-23T03:01:28.039Z,99619.48
2022-12-23T03:02:33.605Z,99618.56
2022-12-23T03:03:37.251Z,99606.42
2022-12-23T03:04:40.243Z,99611.63
2022-12-23T03:07:07.148Z,99605.18
2022-12-23T03:08:09.123Z,99615.01
2022-12-23T03:09:14.885Z,99615.85
2022-12-23T03:10:38.865Z,99611.56
2022-12-23T03:11:47.212Z,99615.64
2022-12-23T03:12:52.888Z,99614.45
2022-12-23T03:14:17.098Z,99616.77
2022-12-23T03:15:48.945Z,99622.40
2022-12-23T03:16:52.805Z,99621.75
2022-12-23T03:18:16.649Z,99623.28
2022-12-23T03:20:55.099Z,99618.64
2022-12-23T03:22:19.315Z,99623.95
2022-12-23T03:23:24.993Z,99618.60
2022-12-23T03:24:50.822Z,99621.45
2022-12-23T03:26:02.723Z,99619.35
2022-12-23T03:27:11.695Z,99613.27
2022-12-23T03:28:17.411Z,99611.30
2022-12-23T03:29:25.950Z,99604.44
2022-12-23T03:30:30.015Z,99607.98
2022-12-23T03:31:34.981Z,99611.50
2022-12-23T03:32:53.344Z,99613.13
2022-12-23T03:34:05.285Z,99609.64
2022-12-23T03:35:10.480Z,99612.22
2022-12-23T03:36:16.255Z,99611.95
2022-12-23T03:37:21.904Z,99619.66
2022-12-23T03:38:25.435Z,99619.63
2022-12-23T03:39:31.114Z,99613.84
2022-12-23T03:40:39.901Z,99611.20
2022-12-23T03:41:45.667Z,99617.36
2022-12-23T03:42:51.425Z,99613.98
2022-12-23T03:45:38.189Z,99612.86
2022-12-23T03:46:30.811Z,99613.06
2022-12-23T03:47:36.634Z,99613.73
2022-12-23T03:50:08.607Z,99608.28
2022-12-23T03:51:17.048Z,99617.09
2022-12-23T03:52:22.740Z,99616.98
2022-12-23T03:53:34.666Z,99613.91
2022-12-23T03:54:40.600Z,99613.77
2022-12-23T03:55:46.289Z,99607.58
2022-12-23T03:56:55.907Z,99617.02
2022-12-23T03:58:01.707Z,99614.01
2022-12-23T03:59:16.262Z,99617.36
2022-12-23T04:00:18.560Z,99607.72
2022-12-23T04:01:27.278Z,99615.84
2022-12-23T04:02:33.376Z,99618.57
2022-12-23T04:03:39.289Z,99618.34
2022-12-23T04:04:54.794Z,99612.34
2022-12-23T04:06:00.598Z,99618.27
2022-12-23T04:07:12.281Z,99621.83
2022-12-23T04:08:18.056Z,99623.61
2022-12-23T04:09:22.736Z,99618.27
2022-12-23T04:10:26.192Z,99618.14
2022-12-23T04:11:29.241Z,99616.41
2022-12-23T04:12:31.726Z,99617.19
2022-12-23T04:13:34.296Z,99621.75
2022-12-23T04:14:40.213Z,99617.59
2022-12-23T04:15:42.850Z,99617.42
2022-12-23T04:16:46.355Z,99627.95
2022-12-23T04:17:49.894Z,99624.42
2022-12-23T04:18:51.997Z,99620.23
2022-12-23T04:19:54.899Z,99633.16
2022-12-23T04:20:58.111Z,99624.36
2022-12-23T04:22:00.004Z,99630.68
2022-12-23T04:23:02.803Z,99623.81
2022-12-23T04:24:05.731Z,99624.39
2022-12-23T04:25:09.118Z,99621.69
2022-12-23T04:26:11.729Z,99617.63
2022-12-23T04:27:16.171Z,99614.92
2022-12-23T04:28:18.397Z,99611.64
2022-12-23T04:29:20.446Z,99624.79
2022-12-23T04:30:25.517Z,99621.98
2022-12-23T04:31:26.402Z,99618.34
2022-12-23T04:32:28.339Z,99622.90
2022-12-23T04:33:30.362Z,99616.72
2022-12-23T04:34:32.574Z,99617.52
2022-12-23T04:35:35.052Z,99618.41
2022-12-23T04:36:38.332Z,99619.32
2022-12-23T04:37:40.346Z,99621.98
2022-12-23T04:38:42.366Z,99614.08
2022-12-23T04:39:44.264Z,99612.25
2022-12-23T04:40:46.449Z,99612.08
2022-12-23T04:41:49.257Z,99619.76
2022-12-23T04:42:53.325Z,99621.83
2022-12-23T04:43:55.621Z,99624.30
2022-12-23T04:44:58.081Z,99629.38
2022-12-23T04:46:00.104Z,99616.45
2022-12-23T04:47:02.058Z,99618.03
2022-12-23T04:48:05.132Z,99614.01
2022-12-23T04:49:07.392Z,99621.72
2022-12-23T04:50:15.477Z,99621.59
2022-12-23T04:51:18.654Z,99619.89
2022-12-23T04:52:20.871Z,99614.55
2022-12-23T04:53:22.928Z,99615.70
2022-12-23T04:54:24.909Z,99625.00
2022-12-23T04:55:26.910Z,99625.81
2022-12-23T04:56:28.904Z,99630.18
2022-12-23T04:57:30.793Z,99622.20
2022-12-23T04:58:32.789Z,99630.11
2022-12-23T04:59:34.758Z,99630.92
2022-12-23T05:00:39.774Z,99642.26
2022-12-23T05:01:42.753Z,99646.59
2022-12-23T05:02:44.970Z,99645.00
2022-12-23T05:03:47.535Z,99654.80
2022-12-23T05:04:49.616Z,99651.32
2022-12-23T05:05:51.492Z,99653.92
2022-12-23T05:06:53.716Z,99648.69
2022-12-23T05:08:04.688Z,99649.27
2022-12-23T05:09:07.116Z,99645.10
2022-12-23T05:10:10.333Z,99642.33
2022-12-23T05:11:12.335Z,99645.67
2022-12-23T05:12:14.232Z,99648.25
2022-12-23T05:13:16.323Z,99635.63
2022-12-23T05:14:18.261Z,99643.47
2022-12-23T05:15:20.130Z,99651.26
2022-12-23T05:16:22.365Z,99643.44
2022-12-23T05:17:24.632Z,99656.53
2022-12-23T05:18:26.648Z,99644.39
2022-12-23T05:19:28.644Z,99656.50
2022-12-23T05:20:30.755Z,99642.83
2022-12-23T05:21:32.699Z,99654.09
2022-12-23T05:22:34.664Z,99647.80
2022-12-23T05:23:38.311Z,99639.95
2022-12-23T05:24:40.193Z,99657.15
2022-12-23T05:25:42.318Z,99655.42
2022-12-23T05:26:48.050Z,99651.26
2022-12-23T05:27:53.673Z,99651.13
2022-12-23T05:28:56.446Z,99644.25
2022-12-23T05:29:58.525Z,99638.91
2022-12-23T05:32:13.918Z,99637.80
2022-12-23T05:33:16.245Z,99633.63
2022-12-23T05:34:18.383Z,99641.03
2022-12-23T05:35:21.293Z,99632.14
2022-12-23T05:36:24.500Z,99632.95
2022-12-23T05:37:26.633Z,99637.19
2022-12-23T05:38:28.669Z,99633.70
2022-12-23T05:39:30.536Z,99630.18
2022-12-23T05:40:33.955Z,99635.36
2022-12-23T05:41:36.400Z,99638.84
2022-12-23T05:42:38.252Z,99637.12
2022-12-23T05:43:40.164Z,99639.75
2022-12-23T05:44:42.146Z,99644.94
2022-12-23T05:45:44.313Z,99641.45
2022-12-23T05:46:46.650Z,99640.53
2022-12-23T05:47:48.602Z,99630.42
2022-12-23T08:59:02.755Z,99589.53
2022-12-23T09:00:06.734Z,99594.03
2022-12-23T09:01:11.401Z,99595.72
2022-12-23T09:02:13.714Z,99590.33
2022-12-23T09:03:16.064Z,99586.75
2022-12-23T09:04:18.144Z,99593.74
2022-12-23T09:05:20.013Z,99591.00
2022-12-23T09:07:35.537Z,99591.23
2022-12-23T09:08:37.999Z,99595.03
2022-12-23T09:09:40.119Z,99593.89
2022-12-23T09:10:43.546Z,99598.00
2022-12-23T09:11:45.684Z,99589.05
2022-12-23T09:12:47.616Z,99593.57
2022-12-23T09:13:50.470Z,99589.98
2022-12-23T09:14:52.825Z,99589.81
2022-12-23T09:15:57.270Z,99589.05
2022-12-23T09:17:00.334Z,99590.87
2022-12-23T09:18:03.113Z,99590.37
2022-12-23T09:19:06.086Z,99591.39
2022-12-23T09:20:10.051Z,99588.59
2022-12-23T09:21:15.126Z,99581.45
2022-12-23T09:22:17.078Z,99587.24
2022-12-23T09:23:18.961Z,99584.77
2022-12-23T09:24:20.859Z,99582.95
2022-12-23T09:25:23.069Z,99583.69
2022-12-23T09:26:28.794Z,99583.27
2022-12-23T09:27:30.762Z,99580.00
2022-12-23T09:28:33.147Z,99580.90
2022-12-23T09:29:35.255Z,99584.94
2022-12-23T09:30:37.392Z,99578.64
2022-12-23T09:31:39.582Z,99594.23
2022-12-23T09:32:44.838Z,99584.27
2022-12-23T09:33:49.936Z,99589.59
2022-12-23T09:34:51.971Z,99593.34
2022-12-23T09:35:57.800Z,99596.80
2022-12-23T09:36:59.833Z,99593.83
2022-12-23T09:38:04.189Z,99588.50
2022-12-23T09:39:06.114Z,99588.41
2022-12-23T09:40:13.428Z,99601.17
2022-12-23T09:41:20.160Z,99600.15
2022-12-23T09:42:34.672Z,99593.87
2022-12-23T09:45:09.547Z,99596.73
2022-12-23T09:46:24.425Z,99595.02
2022-12-23T09:47:28.977Z,99596.59
2022-12-23T09:48:37.833Z,99597.58
2022-12-23T09:49:43.746Z,99590.09
2022-12-23T09:50:46.489Z,99583.81
2022-12-23T09:51:50.830Z,99583.91
2022-12-23T09:53:05.600Z,99579.48
2022-12-23T09:54:17.752Z,99572.66
2022-12-23T09:55:23.031Z,99574.53
2022-12-23T09:56:28.799Z,99568.28
2022-12-23T09:57:40.519Z,99578.54
2022-12-23T09:59:06.895Z,99587.66
2022-12-23T10:00:18.241Z,99590.31
2022-12-23T10:01:32.533Z,99586.86
2022-12-23T10:02:41.499Z,99579.36
2022-12-23T10:04:10.670Z,99574.87
2022-12-23T10:05:28.621Z,99572.02
2022-12-23T10:06:33.707Z,99576.13
2022-12-23T10:07:51.258Z,99572.21
2022-12-23T10:08:57.209Z,99575.72
2022-12-23T10:10:03.098Z,99575.63
2022-12-23T10:11:08.896Z,99572.26
2022-12-23T10:12:21.030Z,99575.72
2022-12-23T10:13:28.391Z,99578.23
2022-12-23T10:14:33.483Z,99573.64
2022-12-23T10:15:39.528Z,99566.84
2022-12-23T10:16:57.735Z,99569.16
2022-12-23T10:18:04.084Z,99555.84
2022-12-23T10:19:09.891Z,99559.24
2022-12-23T10:20:18.925Z,99552.93
2022-12-23T10:21:47.307Z,99546.37
2022-12-23T10:22:46.887Z,99546.31
2022-12-23T10:23:52.737Z,99549.67
2022-12-23T10:24:57.713Z,99548.03
2022-12-23T10:26:02.712Z,99542.58
2022-12-23T10:27:20.720Z,99545.23
2022-12-23T10:28:23.049Z,99559.14
2022-12-23T10:29:32.510Z,99569.06
2022-12-23T10:31:54.284Z,99573.14
2022-12-23T10:33:21.485Z,99577.08
2022-12-23T10:35:38.514Z,99568.65
2022-12-23T10:36:53.857Z,99569.70
2022-12-23T10:38:02.711Z,99559.34
2022-12-23T10:39:25.345Z,99561.12
2022-12-23T10:40:48.003Z,99569.70
2022-12-23T10:42:18.170Z,99569.38
2022-12-23T10:43:30.087Z,99572.69
2022-12-23T10:44:58.717Z,99571.73
2022-12-23T10:46:10.510Z,99564.47
2022-12-23T10:47:50.149Z,99556.46
2022-12-23T10:49:05.121Z,99556.30
2022-12-23T10:50:29.242Z,99554.83
2022-12-23T10:51:46.887Z,99552.42
2022-12-23T10:52:52.295Z,99547.41
2022-12-23T10:54:10.190Z,99537.99
2022-12-23T10:55:31.347Z,99546.00
2022-12-23T10:56:30.434Z,99539.66
2022-12-23T10:57:33.397Z,99538.81
2022-12-23T10:58:42.554Z,99532.55
2022-12-23T10:59:44.987Z,99535.95
2022-12-23T11:00:51.780Z,99535.32
2022-12-23T11:02:13.610Z,99536.20
2022-12-23T11:03:28.812Z,99540.91
2022-12-23T11:04:40.858Z,99535.16
2022-12-23T11:05:44.925Z,99532.02
2022-12-23T11:06:55.881Z,99541.32
2022-12-23T11:07:56.025Z,99531.65
2022-12-23T11:09:01.624Z,99536.30
2022-12-23T11:10:19.495Z,99541.22
2022-12-23T11:11:21.766Z,99537.03
2022-12-23T11:12:26.640Z,99533.58
2022-12-23T11:13:38.465Z,99532.44
2022-12-23T11:14:55.457Z,99519.84
2022-12-23T11:16:16.529Z,99527.87
2022-12-23T11:17:30.294Z,99526.00
2022-12-23T11:18:35.100Z,99528.72
2022-12-23T11:19:36.098Z,99531.06
2022-12-23T11:20:44.309Z,99529.34
2022-12-23T11:21:56.143Z,99523.27
2022-12-23T11:23:00.694Z,99523.27
2022-12-23T11:24:20.568Z,99529.34
2022-12-23T11:25:42.991Z,99523.32
2022-12-23T11:26:49.409Z,99537.14
2022-12-23T11:28:16.665Z,99545.57
2022-12-23T11:29:25.362Z,99542.06
2022-12-23T11:30:29.299Z,99548.68
2022-12-23T11:31:33.494Z,99540.78
2022-12-23T11:32:37.019Z,99539.80
2022-12-23T11:34:00.947Z,99545.70
2022-12-23T11:35:03.548Z,99533.68
2022-12-23T11:36:16.629Z,99536.40
2022-12-23T11:37:30.874Z,99529.92
2022-12-23T11:38:36.523Z,99539.29
2022-12-23T11:39:40.903Z,99541.01
2022-12-23T11:40:46.030Z,99535.59
2022-12-23T11:41:51.497Z,99533.22
2022-12-23T11:44:12.733Z,99532.23
2022-12-23T11:45:27.248Z,99541.32
2022-12-23T11:46:32.867Z,99534.27
2022-12-23T11:47:39.612Z,99528.83
2022-12-23T11:48:42.047Z,99526.78
2022-12-23T11:49:50.517Z,99529.35
2022-12-23T11:52:13.473Z,99541.73
2022-12-23T11:53:24.282Z,99540.50
2022-12-23T11:54:26.855Z,99541.95
2022-12-23T11:55:31.399Z,99546.97
2022-12-23T11:56:39.501Z,99549.50
2022-12-23T11:57:47.977Z,99543.12
2022-12-23T11:59:03.005Z,99549.86
2022-12-23T12:00:08.688Z,99548.09
2022-12-23T12:01:19.962Z,99549.39
2022-12-23T12:02:38.059Z,99551.79
2022-12-23T12:03:46.489Z,99556.15
2022-12-23T12:04:52.234Z,99553.59
2022-12-23T12:05:58.288Z,99557.23
2022-12-23T12:07:03.157Z,99538.20
2022-12-23T12:08:08.265Z,99551.66
2022-12-23T12:09:12.745Z,99549.33
2022-12-23T12:10:22.396Z,99544.89
2022-12-23T12:11:27.421Z,99547.19
2022-12-23T12:12:30.269Z,99545.69
2022-12-23T12:13:38.882Z,99547.30
2022-12-23T12:14:50.677Z,99544.41
2022-12-23T12:15:57.248Z,99546.97
2022-12-23T12:17:05.949Z,99547.88
2022-12-23T12:18:11.759Z,99545.89
2022-12-23T12:19:34.536Z,99548.51
2022-12-23T12:20:40.299Z,99555.52
2022-12-23T12:21:45.244Z,99554.78
2022-12-23T12:22:53.779Z,99561.70
2022-12-23T12:24:18.509Z,99567.80
2022-12-23T12:26:33.584Z,99560.64
2022-12-23T12:27:38.504Z,99565.14
2022-12-23T12:28:44.145Z,99561.70
2022-12-23T12:29:53.952Z,99580.94
2022-12-23T12:31:22.804Z,99589.48
2022-12-23T12:32:28.771Z,99587.70
2022-12-23T12:33:34.594Z,99589.78
2022-12-23T12:35:58.946Z,99594.61
2022-12-23T12:37:08.314Z,99600.94
2022-12-23T12:38:26.318Z,99603.36
2022-12-23T12:39:32.097Z,99609.52
2022-12-23T12:40:44.000Z,99612.82
2022-12-23T12:41:49.673Z,99617.27
2022-12-23T12:43:00.956Z,99614.02
2022-12-23T12:44:25.696Z,99606.31
2022-12-23T12:45:43.678Z,99604.64
2022-12-23T12:47:21.885Z,99609.72
2022-12-23T12:48:21.130Z,99610.72
2022-12-23T12:50:49.948Z,99613.67
2022-12-23T12:52:04.931Z,99619.25
2022-12-23T12:53:14.096Z,99615.25
2022-12-23T12:54:22.666Z,99619.48
2022-12-23T12:55:31.359Z,99618.41
2022-12-23T12:56:52.542Z,99615.70
2022-12-23T12:57:54.824Z,99613.03
2022-12-23T12:58:57.843Z,99612.48
2022-12-23T13:00:06.238Z,99612.54
2022-12-23T13:01:22.904Z,99616.14
2022-12-23T13:02:37.607Z,99611.69
2022-12-23T13:04:01.115Z,99607.80
2022-12-23T13:05:19.219Z,99614.91
2022-12-23T13:06:46.668Z,99614.02
2022-12-23T13:08:26.247Z,99614.51
2022-12-23T13:09:47.262Z,99615.05
2022-12-23T13:11:03.347Z,99623.20
2022-12-23T13:12:24.274Z,99616.20
2022-12-23T13:13:31.919Z,99619.69
2022-12-23T13:15:12.911Z,99614.56
2022-12-23T13:16:35.357Z,99598.02
2022-12-23T13:17:53.143Z,99608.53
2022-12-23T13:19:11.237Z,99603.06
2022-12-23T13:22:03.516Z,99597.69
2022-12-23T13:23:42.263Z,99600.98
2022-12-23T13:24:34.801Z,99597.77
2022-12-23T13:25:40.479Z,99589.78
2022-12-23T13:27:05.940Z,99597.77
2022-12-23T13:28:29.006Z,99599.66
2022-12-23T13:29:58.325Z,99597.77
2022-12-23T13:31:06.673Z,99592.84
2022-12-23T13:32:41.699Z,99604.89
2022-12-23T13:35:23.805Z,99602.22
2022-12-23T13:36:41.548Z,99596.63
2022-12-23T13:37:59.332Z,99614.04
2022-12-23T13:39:05.071Z,99610.63
2022-12-23T13:40:23.276Z,99607.21
2022-12-23T13:41:38.245Z,99608.91
2022-12-23T13:42:43.902Z,99608.86
2022-12-23T13:43:49.602Z,99601.02
2022-12-23T13:44:52.737Z,99594.23
2022-12-23T13:45:58.159Z,99599.70
2022-12-23T13:47:06.881Z,99599.00
2022-12-23T13:48:28.026Z,99597.41
2022-12-23T13:49:58.528Z,99606.89
2022-12-23T13:51:22.962Z,99603.48
2022-12-23T13:52:40.721Z,99588.59
2022-12-23T13:54:04.207Z,99596.57
2022-12-23T13:55:23.746Z,99591.53
2022-12-23T13:56:41.925Z,99589.85
2022-12-23T13:58:03.826Z,99591.80
2022-12-23T13:59:11.256Z,99602.25
2022-12-23T14:00:20.085Z,99600.70
2022-12-23T16:49:19.069Z,99634.30
2022-12-23T16:50:21.226Z,99630.95
2022-12-23T16:51:26.037Z,99630.95
2022-12-23T16:52:28.058Z,99629.08
2022-12-23T16:53:29.955Z,99630.66
2022-12-23T16:54:32.219Z,99630.66
2022-12-23T16:55:34.260Z,99632.28
2022-12-23T16:56:37.305Z,99626.06
2022-12-23T16:57:39.454Z,99623.41
2022-12-23T16:58:41.830Z,99621.70
2022-12-23T16:59:43.728Z,99614.78
2022-12-23T17:00:46.665Z,99617.47
2022-12-23T17:01:50.121Z,99621.62
2022-12-23T17:02:52.392Z,99619.73
2022-12-23T17:03:54.358Z,99616.24
2022-12-23T17:04:56.234Z,99612.75
2022-12-23T17:05:58.436Z,99612.64
2022-12-23T17:07:01.097Z,99614.28
2022-12-23T17:08:03.297Z,99622.08
2022-12-23T17:09:06.368Z,99626.44
2022-12-23T17:10:09.731Z,99615.13
2022-12-23T17:11:17.299Z,99622.95
2022-12-23T17:12:19.724Z,99625.41
2022-12-23T17:13:22.167Z,99617.02
2022-12-23T17:14:24.971Z,99613.63
2022-12-23T17:15:27.147Z,99613.52
2022-12-23T17:16:29.292Z,99622.11
2022-12-23T17:17:33.406Z,99621.23
2022-12-23T17:18:35.472Z,99618.46
2022-12-23T17:19:37.654Z,99620.11
2022-12-23T17:20:40.911Z,99618.58
2022-12-23T17:21:45.277Z,99623.08
2022-12-23T17:22:50.989Z,99623.80
2022-12-23T17:23:54.507Z,99616.94
2022-12-23T17:24:56.499Z,99623.08
2022-12-23T17:25:59.227Z,99620.39
2022-12-23T17:27:01.885Z,99619.58
2022-12-23T17:28:07.645Z,99627.48
2022-12-23T17:29:11.389Z,99623.08
2022-12-23T17:30:15.799Z,99633.27
2022-12-23T17:31:26.576Z,99625.48
2022-12-23T17:32:24.976Z,99615.66
2022-12-23T17:33:29.640Z,99620.15
2022-12-23T17:34:31.561Z,99619.19
2022-12-23T17:35:33.441Z,99613.92
2022-12-23T17:36:35.611Z,99611.48
2022-12-23T17:37:38.617Z,99611.31
2022-12-23T17:38:40.648Z,99603.37
2022-12-23T17:39:43.748Z,99612.33
2022-12-23T17:40:47.560Z,99607.02
2022-12-23T17:41:51.052Z,99613.09
2022-12-23T17:42:52.965Z,99619.27
2022-12-23T17:43:56.374Z,99607.27
2022-12-23T17:44:58.276Z,99616.77
2022-12-23T17:46:00.222Z,99618.39
2022-12-23T17:47:06.144Z,99613.32
2022-12-23T17:48:16.305Z,99616.01
2022-12-23T17:49:14.515Z,99608.19
2022-12-23T17:50:17.369Z,99614.20
2022-12-23T17:51:22.066Z,99617.55
2022-12-23T17:52:25.060Z,99615.73
2022-12-23T17:53:27.085Z,99609.67
2022-12-23T17:54:29.097Z,99615.66
2022-12-23T17:55:31.468Z,99620.80
2022-12-23T17:56:33.556Z,99624.24
2022-12-23T17:57:35.525Z,99623.28
2022-12-23T17:58:37.520Z,99615.58
2022-12-23T17:59:39.454Z,99615.85
2022-12-23T18:00:41.786Z,99617.34
2022-12-23T18:01:44.081Z,99607.67
2022-12-23T18:02:46.791Z,99615.58
2022-12-23T18:03:49.490Z,99619.14
2022-12-23T18:04:51.902Z,99616.38
2022-12-23T18:06:01.124Z,99619.95
2022-12-23T18:06:57.742Z,99626.28
2022-12-23T18:08:01.528Z,99608.91
2022-12-23T18:09:03.588Z,99616.45
2022-12-23T18:10:08.814Z,99620.75
2022-12-23T18:12:29.254Z,99606.62
2022-12-23T18:13:32.941Z,99616.45
2022-12-23T18:14:35.002Z,99629.78
2022-12-23T18:15:41.083Z,99619.58
2022-12-23T18:16:43.256Z,99621.15
2022-12-23T18:17:45.441Z,99622.68
2022-12-23T18:18:47.565Z,99627.05
2022-12-23T18:19:49.756Z,99631.58
2022-12-23T18:20:53.932Z,99633.35
2022-12-23T18:21:56.219Z,99632.47
2022-12-23T18:22:59.204Z,99633.20
2022-12-23T18:24:01.259Z,99628.05
2022-12-23T18:25:04.073Z,99631.55
2022-12-23T18:26:06.463Z,99630.55
2022-12-23T18:27:17.560Z,99630.39
2022-12-23T18:28:20.059Z,99640.14
2022-12-23T18:29:21.954Z,99639.41
2022-12-23T18:30:23.997Z,99635.89
2022-12-23T18:31:25.932Z,99637.80
2022-12-23T18:32:28.677Z,99636.27
2022-12-23T18:33:30.568Z,99638.07
2022-12-23T18:34:32.540Z,99627.48
2022-12-23T18:35:38.739Z,99636.00
2022-12-23T18:36:41.181Z,99631.89
2022-12-23T18:37:43.117Z,99637.03
2022-12-23T18:38:45.151Z,99629.94
2022-12-23T18:39:48.163Z,99635.16
2022-12-23T18:40:50.607Z,99623.08
2022-12-23T18:41:52.592Z,99629.28
2022-12-23T18:42:54.673Z,99623.41
2022-12-23T18:43:56.557Z,99620.73
2022-12-23T18:44:58.439Z,99621.46
2022-12-23T18:46:00.564Z,99619.81
2022-12-23T18:47:02.635Z,99622.30
2022-12-23T18:48:06.715Z,99619.58
2022-12-23T18:49:08.760Z,99624.80
2022-12-23T18:50:10.818Z,99628.21
2022-12-23T18:51:18.460Z,99626.44
2022-12-23T18:52:20.530Z,99620.47
2022-12-23T18:53:25.188Z,99624.80
2022-12-23T18:54:27.352Z,99626.44
2022-12-23T18:55:29.825Z,99624.11
2022-12-23T18:56:31.999Z,99623.27
2022-12-23T18:57:33.991Z,99621.42
2022-12-23T18:58:36.013Z,99614.48
2022-12-23T18:59:37.925Z,99628.05
2022-12-23T19:00:40.758Z,99634.00
2022-12-23T19:01:44.135Z,99636.80
2022-12-23T19:02:48.134Z,99628.05
2022-12-23T19:03:50.216Z,99618.66
2022-12-23T19:04:52.101Z,99618.66
2022-12-23T19:05:56.124Z,99629.86
2022-12-23T19:06:58.789Z,99628.89
2022-12-23T19:08:00.706Z,99623.61
2022-12-23T19:09:03.316Z,99624.52
2022-12-23T19:10:09.320Z,99625.37
2022-12-23T19:11:13.703Z,99629.78
2022-12-23T19:12:15.726Z,99634.92
2022-12-23T19:13:18.800Z,99630.51
2022-12-23T19:14:20.969Z,99633.84
2022-12-23T19:15:23.355Z,99629.46
2022-12-23T19:16:25.728Z,99628.94
2022-12-23T19:17:28.473Z,99634.92
2022-12-23T19:18:30.469Z,99638.45
2022-12-23T19:19:32.576Z,99639.61
2022-12-23T19:20:34.824Z,99643.28
2022-12-23T19:21:36.801Z,99638.80
2022-12-23T19:22:39.900Z,99643.36
2022-12-23T19:23:42.698Z,99638.98
2022-12-23T19:25:03.851Z,99639.03
2022-12-23T19:25:54.883Z,99642.48
2022-12-23T19:26:52.639Z,99637.27
2022-12-23T19:27:56.036Z,99642.37